createdAt,value
2023-02-28T00:00:35.492Z,5.50
2023-02-28T00:03:06.811Z,5.48
2023-02-28T00:05:36.962Z,5.54
2023-02-28T00:08:06.338Z,5.47
2023-02-28T00:10:35.889Z,5.39
2023-02-28T00:13:06.852Z,5.34
2023-02-28T00:15:37.259Z,5.30
2023-02-28T00:18:08.266Z,5.27
2023-02-28T00:20:37.716Z,5.24
2023-02-28T00:23:06.736Z,5.18
2023-02-28T00:25:35.908Z,5.08
2023-02-28T00:28:04.911Z,5.16
2023-02-28T00:30:35.516Z,5.15
2023-02-28T00:33:09.057Z,5.17
2023-02-28T00:35:38.984Z,5.15
2023-02-28T00:38:08.298Z,5.05
2023-02-28T00:40:37.791Z,4.99
2023-02-28T00:43:07.002Z,4.92
2023-02-28T00:45:36.128Z,4.94
2023-02-28T00:48:08.768Z,4.92
2023-02-28T00:50:37.912Z,4.95
2023-02-28T00:53:06.891Z,4.98
2023-02-28T00:55:36.445Z,5.03
2023-02-28T00:58:07.179Z,4.97
2023-02-28T01:00:36.313Z,4.91
2023-02-28T01:03:05.508Z,4.87
2023-02-28T01:05:36.053Z,4.85
2023-02-28T01:08:05.464Z,4.82
2023-02-28T01:10:34.695Z,4.77
2023-02-28T01:13:04.583Z,4.78
2023-02-28T01:15:34.426Z,4.81
2023-02-28T01:18:03.698Z,4.92
2023-02-28T01:20:35.498Z,4.83
2023-02-28T01:23:04.614Z,4.79
2023-02-28T01:25:36.674Z,4.95
2023-02-28T01:28:08.054Z,4.88
2023-02-28T01:30:37.382Z,4.95
2023-02-28T01:33:06.319Z,4.99
2023-02-28T01:35:38.658Z,5.04
2023-02-28T01:38:21.187Z,5.08
2023-02-28T01:40:52.958Z,5.12
2023-02-28T01:43:28.564Z,5.09
2023-02-28T01:45:59.634Z,5.10
2023-02-28T01:48:33.922Z,5.07
2023-02-28T01:51:10.738Z,5.09
2023-02-28T01:53:44.905Z,5.03
2023-02-28T01:56:21.684Z,5.11
2023-02-28T01:58:55.082Z,5.15
2023-02-28T02:01:29.261Z,5.20
2023-02-28T02:04:01.777Z,5.24
2023-02-28T02:06:36.744Z,5.19
2023-02-28T02:09:05.958Z,5.26
2023-02-28T02:11:36.505Z,5.22
2023-02-28T02:14:38.536Z,5.18
2023-02-28T02:17:22.072Z,5.23
2023-02-28T02:20:18.021Z,5.34
2023-02-28T02:23:24.376Z,5.38
2023-02-28T02:25:57.476Z,5.41
2023-02-28T02:28:50.169Z,5.48
2023-02-28T02:32:07.340Z,5.48
2023-02-28T02:34:48.214Z,5.47
2023-02-28T02:37:32.503Z,5.57
2023-02-28T02:40:13.959Z,5.61
2023-02-28T02:42:52.133Z,5.67
2023-02-28T02:45:27.368Z,5.61
2023-02-28T02:47:59.385Z,5.81
2023-02-28T02:50:36.538Z,5.85
2023-02-28T02:53:07.791Z,5.93
2023-02-28T02:55:41.556Z,5.92
2023-02-28T02:58:15.732Z,5.85
2023-02-28T03:00:49.348Z,5.95
2023-02-28T03:03:21.916Z,5.90
2023-02-28T03:05:53.338Z,5.94
2023-02-28T03:08:22.302Z,5.99
2023-02-28T03:10:53.311Z,6.05
2023-02-28T03:13:39.746Z,6.05
2023-02-28T03:16:46.413Z,6.08
2023-02-28T03:19:33.770Z,6.10
2023-02-28T03:22:27.110Z,6.16
2023-02-28T03:25:03.566Z,6.13
2023-02-28T03:27:43.865Z,6.16
2023-02-28T03:30:21.809Z,6.25
2023-02-28T03:32:58.421Z,6.32
2023-02-28T03:35:31.101Z,6.39
2023-02-28T03:38:05.915Z,6.41
2023-02-28T03:40:40.642Z,6.35
2023-02-28T03:43:15.794Z,6.42
2023-02-28T03:45:48.174Z,6.47
2023-02-28T03:48:21.288Z,6.42
2023-02-28T03:50:54.440Z,6.43
2023-02-28T03:53:31.737Z,6.42
2023-02-28T03:56:07.710Z,6.46
2023-02-28T03:58:43.792Z,6.42
2023-02-28T04:01:18.783Z,6.32
2023-02-28T04:03:48.537Z,6.49
2023-02-28T04:06:20.678Z,6.45
2023-02-28T04:08:52.446Z,6.48
2023-02-28T04:11:38.907Z,6.51
2023-02-28T04:14:09.604Z,6.57
2023-02-28T04:16:41.300Z,6.63
2023-02-28T04:19:16.419Z,6.64
2023-02-28T04:21:46.886Z,6.72
2023-02-28T04:24:20.593Z,6.63
2023-02-28T04:26:51.538Z,6.55
2023-02-28T04:29:24.018Z,6.69
2023-02-28T04:31:54.460Z,6.70
2023-02-28T04:34:24.879Z,6.69
2023-02-28T04:37:11.475Z,6.71
2023-02-28T04:39:44.889Z,6.72
2023-02-28T04:42:15.966Z,6.82
2023-02-28T04:44:45.161Z,6.81
2023-02-28T04:47:14.248Z,6.74
2023-02-28T04:49:44.670Z,6.76
2023-02-28T04:52:14.559Z,6.73
2023-02-28T04:54:45.039Z,6.76
2023-02-28T04:57:14.219Z,6.77
2023-02-28T04:59:43.261Z,6.81
2023-02-28T05:02:12.269Z,6.87
2023-02-28T05:04:41.339Z,6.85
2023-02-28T05:07:10.957Z,6.88
2023-02-28T05:09:40.707Z,6.94
2023-02-28T05:12:11.952Z,6.96
2023-02-28T05:14:41.849Z,6.92
2023-02-28T05:17:12.082Z,6.94
2023-02-28T05:19:41.135Z,6.95
2023-02-28T05:22:16.494Z,6.95
2023-02-28T05:24:46.711Z,6.97
2023-02-28T05:27:17.734Z,6.95
2023-02-28T05:29:46.872Z,6.93
2023-02-28T05:32:16.117Z,6.95
2023-02-28T05:34:45.208Z,6.99
2023-02-28T05:37:18.037Z,6.95
2023-02-28T05:39:47.040Z,6.94
2023-02-28T05:42:17.635Z,6.91
2023-02-28T05:44:46.618Z,6.92
2023-02-28T05:47:16.807Z,6.91
2023-02-28T05:49:45.796Z,6.96
2023-02-28T05:52:14.870Z,7.02
2023-02-28T05:54:43.949Z,6.99
2023-02-28T05:57:22.888Z,6.98
2023-02-28T05:59:55.829Z,7.00
2023-02-28T06:02:25.060Z,7.05
2023-02-28T06:04:54.068Z,7.06
2023-02-28T06:07:23.713Z,7.13
2023-02-28T06:09:52.823Z,7.20
2023-02-28T06:12:21.838Z,7.07
2023-02-28T06:14:51.108Z,7.15
2023-02-28T06:17:21.880Z,7.14
2023-02-28T06:19:51.149Z,7.13
2023-02-28T06:22:20.136Z,7.24
2023-02-28T06:24:49.443Z,7.22
2023-02-28T06:27:18.451Z,7.10
2023-02-28T06:29:47.622Z,7.17
2023-02-28T06:32:16.834Z,7.13
2023-02-28T06:34:47.607Z,7.07
2023-02-28T06:37:16.933Z,7.16
2023-02-28T06:39:46.261Z,7.13
2023-02-28T06:42:15.414Z,7.04
2023-02-28T06:44:44.589Z,7.05
2023-02-28T06:47:13.789Z,7.03
2023-02-28T06:49:42.801Z,7.10
2023-02-28T06:52:14.422Z,7.13
2023-02-28T06:54:43.532Z,7.23
2023-02-28T06:57:12.561Z,7.32
2023-02-28T06:59:41.741Z,7.11
2023-02-28T07:02:12.090Z,7.22
2023-02-28T07:04:41.751Z,7.23
2023-02-28T07:07:11.416Z,7.33
2023-02-28T07:09:41.868Z,7.37
2023-02-28T07:12:10.996Z,7.42
2023-02-28T07:14:40.179Z,7.28
2023-02-28T07:17:10.232Z,7.42
2023-02-28T07:19:39.390Z,7.31
2023-02-28T07:22:08.907Z,7.50
2023-02-28T07:24:37.992Z,7.51
2023-02-28T07:27:08.472Z,7.45
2023-02-28T07:29:38.546Z,7.36
2023-02-28T07:32:07.825Z,7.54
2023-02-28T07:34:37.094Z,7.50
2023-02-28T07:37:06.787Z,7.59
2023-02-28T07:39:36.365Z,7.69
2023-02-28T07:42:11.609Z,7.74
2023-02-28T07:44:43.919Z,7.72
2023-02-28T07:47:15.482Z,7.82
2023-02-28T07:49:44.593Z,7.89
2023-02-28T07:52:16.511Z,7.87
2023-02-28T07:54:46.332Z,8.00
2023-02-28T07:57:17.114Z,8.03
2023-02-28T07:59:46.292Z,8.03
2023-02-28T08:02:16.806Z,8.05
2023-02-28T08:04:46.197Z,8.04
2023-02-28T08:07:15.791Z,8.08
2023-02-28T08:09:45.597Z,8.14
2023-02-28T08:12:15.058Z,8.10
2023-02-28T08:14:45.458Z,7.96
2023-02-28T08:17:14.822Z,8.14
2023-02-28T08:19:44.107Z,8.10
2023-02-28T08:22:13.264Z,8.20
2023-02-28T08:24:44.214Z,8.08
2023-02-28T08:27:15.602Z,8.17
2023-02-28T08:29:46.716Z,8.20
2023-02-28T08:32:29.061Z,8.11
2023-02-28T08:34:59.155Z,8.19
2023-02-28T08:37:28.395Z,8.26
2023-02-28T08:40:19.470Z,8.30
2023-02-28T08:42:49.456Z,8.37
2023-02-28T08:45:20.060Z,8.34
2023-02-28T08:47:49.125Z,8.38
2023-02-28T08:50:18.611Z,8.55
2023-02-28T08:52:48.311Z,8.57
2023-02-28T08:55:17.382Z,8.50
2023-02-28T08:57:46.576Z,8.57
2023-02-28T09:00:16.241Z,8.60
2023-02-28T09:02:46.666Z,8.65
2023-02-28T09:05:15.686Z,8.57
2023-02-28T09:07:44.773Z,8.55
2023-02-28T09:10:13.909Z,8.69
2023-02-28T09:12:43.016Z,8.66
2023-02-28T09:15:13.173Z,8.71
2023-02-28T09:17:42.826Z,8.83
2023-02-28T09:20:19.150Z,8.91
2023-02-28T09:22:48.280Z,8.91
2023-02-28T09:25:18.218Z,9.00
2023-02-28T09:27:49.568Z,8.99
2023-02-28T09:30:19.702Z,8.96
2023-02-28T09:32:54.929Z,9.08
2023-02-28T09:35:28.014Z,9.11
2023-02-28T09:37:59.462Z,9.28
2023-02-28T09:40:29.075Z,9.40
2023-02-28T09:42:59.825Z,9.38
2023-02-28T09:45:35.046Z,9.59
2023-02-28T09:48:11.034Z,9.57
2023-02-28T09:50:45.168Z,9.68
2023-02-28T09:53:24.751Z,9.82
2023-02-28T09:55:57.680Z,9.93
2023-02-28T09:58:34.469Z,9.89
2023-02-28T10:01:10.001Z,9.96
2023-02-28T10:03:42.743Z,10.02
2023-02-28T10:06:19.433Z,10.13
2023-02-28T10:08:58.790Z,10.28
2023-02-28T10:11:30.446Z,10.33
2023-02-28T10:14:05.636Z,10.33
2023-02-28T10:16:39.300Z,10.44
2023-02-28T10:19:14.503Z,10.51
2023-02-28T10:21:50.418Z,10.76
2023-02-28T10:24:25.865Z,10.48
2023-02-28T10:26:59.524Z,10.82
2023-02-28T10:29:29.384Z,10.94
2023-02-28T10:31:59.326Z,11.07
2023-02-28T10:34:28.328Z,11.15
2023-02-28T10:37:08.740Z,11.05
2023-02-28T10:39:40.379Z,11.07
2023-02-28T10:42:27.410Z,11.29
2023-02-28T10:45:14.571Z,11.26
2023-02-28T10:47:54.984Z,10.94
2023-02-28T10:50:39.188Z,11.18
2023-02-28T10:53:18.014Z,11.13
2023-02-28T10:55:47.069Z,10.78
2023-02-28T10:58:25.835Z,10.55
2023-02-28T11:00:55.258Z,10.74
2023-02-28T11:03:32.807Z,10.75
2023-02-28T11:06:09.188Z,10.91
2023-02-28T11:08:48.293Z,10.74
2023-02-28T11:11:19.106Z,11.07
2023-02-28T11:13:51.202Z,11.15
2023-02-28T11:16:20.541Z,11.33
2023-02-28T11:18:52.526Z,11.47
2023-02-28T11:21:26.363Z,11.38
2023-02-28T11:24:04.766Z,11.33
2023-02-28T11:26:45.655Z,11.40
2023-02-28T11:29:21.811Z,11.65
2023-02-28T11:32:23.754Z,12.03
2023-02-28T11:35:05.848Z,12.18
2023-02-28T11:37:35.691Z,12.14
2023-02-28T11:40:15.136Z,12.32
2023-02-28T11:42:57.742Z,12.33
2023-02-28T11:45:45.339Z,11.86
2023-02-28T11:48:24.653Z,11.85
2023-02-28T11:51:03.327Z,11.92
2023-02-28T11:53:50.663Z,11.70
2023-02-28T11:56:30.773Z,11.91
2023-02-28T11:59:25.931Z,12.02
2023-02-28T12:02:22.631Z,11.94
2023-02-28T12:05:01.998Z,11.92
2023-02-28T12:07:43.013Z,11.98
2023-02-28T12:10:23.863Z,11.98
2023-02-28T12:13:08.776Z,12.02
2023-02-28T12:15:53.732Z,11.93
2023-02-28T12:18:44.965Z,12.10
2023-02-28T12:21:20.786Z,11.93
2023-02-28T12:24:11.862Z,11.75
2023-02-28T12:26:44.122Z,11.66
2023-02-28T12:29:21.855Z,11.65
2023-02-28T12:31:56.060Z,11.73
2023-02-28T12:34:33.456Z,11.90
2023-02-28T12:37:09.537Z,12.00
2023-02-28T12:39:50.225Z,12.06
2023-02-28T12:42:26.631Z,12.03
2023-02-28T12:45:00.833Z,11.94
2023-02-28T12:47:32.712Z,12.05
2023-02-28T12:50:06.177Z,12.00
2023-02-28T12:52:44.050Z,11.90
2023-02-28T12:55:19.859Z,11.68
2023-02-28T12:57:58.752Z,11.89
2023-02-28T13:00:36.159Z,12.04
2023-02-28T13:03:35.076Z,12.20
2023-02-28T13:06:20.498Z,12.29
2023-02-28T13:09:11.098Z,12.28
2023-02-28T13:11:46.058Z,12.28
2023-02-28T13:14:31.688Z,12.39
2023-02-28T13:17:16.771Z,12.51
2023-02-28T13:19:48.904Z,12.33
2023-02-28T13:22:23.478Z,12.16
2023-02-28T13:24:54.717Z,12.26
2023-02-28T13:27:41.914Z,12.29
2023-02-28T13:30:47.691Z,12.00
2023-02-28T13:33:36.152Z,11.98
2023-02-28T13:36:28.344Z,12.10
2023-02-28T13:39:01.449Z,12.14
2023-02-28T13:41:45.932Z,11.89
2023-02-28T13:44:19.127Z,12.13
2023-02-28T13:47:07.692Z,12.03
2023-02-28T13:49:38.937Z,11.89
2023-02-28T13:52:20.480Z,11.96
2023-02-28T13:55:27.886Z,12.03
2023-02-28T13:58:23.360Z,12.12
2023-02-28T14:01:16.709Z,12.06
2023-02-28T14:04:01.140Z,12.05
2023-02-28T14:06:34.175Z,11.75
2023-02-28T14:09:08.917Z,11.65
2023-02-28T14:11:40.580Z,11.60
2023-02-28T14:14:11.837Z,11.63
2023-02-28T14:16:44.205Z,11.58
2023-02-28T14:19:16.974Z,11.55
2023-02-28T14:22:10.489Z,11.50
2023-02-28T14:25:02.514Z,11.31
2023-02-28T14:27:40.114Z,11.20
2023-02-28T14:30:56.565Z,11.14
2023-02-28T14:33:34.420Z,10.98
2023-02-28T14:36:14.820Z,10.98
2023-02-28T14:38:49.486Z,10.90
2023-02-28T14:41:26.933Z,10.90
2023-02-28T14:43:58.481Z,10.92
2023-02-28T14:46:32.997Z,10.83
2023-02-28T14:49:03.008Z,10.83
2023-02-28T14:51:32.079Z,10.83
2023-02-28T14:54:04.768Z,10.72
2023-02-28T14:56:38.010Z,10.81
2023-02-28T14:59:08.466Z,10.71
2023-02-28T15:01:37.626Z,10.69
2023-02-28T15:04:08.977Z,10.61
2023-02-28T15:06:38.185Z,10.55
2023-02-28T15:09:13.992Z,10.52
2023-02-28T15:11:44.041Z,10.55
2023-02-28T15:14:20.550Z,10.47
2023-02-28T15:16:55.588Z,10.52
2023-02-28T15:19:28.483Z,10.50
2023-02-28T15:22:02.105Z,10.53
2023-02-28T15:24:40.586Z,10.32
2023-02-28T15:27:14.661Z,10.24
2023-02-28T15:29:52.045Z,10.08
2023-02-28T15:32:29.854Z,9.95
2023-02-28T15:35:00.811Z,9.79
2023-02-28T15:37:40.760Z,9.71
2023-02-28T15:40:25.479Z,9.54
2023-02-28T15:43:02.901Z,9.38
2023-02-28T15:45:39.555Z,9.25
2023-02-28T15:48:16.195Z,9.23
2023-02-28T15:50:45.799Z,9.22
2023-02-28T15:53:22.760Z,9.13
2023-02-28T15:56:03.352Z,9.10
2023-02-28T15:58:32.653Z,9.08
2023-02-28T16:01:19.992Z,9.03
2023-02-28T16:03:51.595Z,9.03
2023-02-28T16:06:41.836Z,8.93
2023-02-28T16:09:14.690Z,8.95
2023-02-28T16:11:48.700Z,8.94
2023-02-28T16:14:21.957Z,8.90
2023-02-28T16:16:54.242Z,8.86
2023-02-28T16:19:24.112Z,8.88
2023-02-28T16:21:53.940Z,8.87
2023-02-28T16:24:23.106Z,8.83
2023-02-28T16:26:57.157Z,8.73
2023-02-28T16:29:29.192Z,8.81
2023-02-28T16:31:59.100Z,8.67
2023-02-28T16:34:28.276Z,8.66
2023-02-28T16:36:57.630Z,8.63
2023-02-28T16:39:27.175Z,8.62
2023-02-28T16:41:57.863Z,8.53
2023-02-28T16:44:31.681Z,8.44
2023-02-28T16:47:02.600Z,8.36
2023-02-28T16:49:32.607Z,8.33
2023-02-28T16:52:01.551Z,8.33
2023-02-28T16:54:31.708Z,8.26
2023-02-28T16:57:02.805Z,8.20
2023-02-28T16:59:33.273Z,8.28
2023-02-28T17:02:02.690Z,8.31
2023-02-28T17:04:31.938Z,8.30
2023-02-28T17:07:01.270Z,8.35
2023-02-28T17:09:41.426Z,8.33
2023-02-28T17:12:13.689Z,8.26
2023-02-28T17:14:42.870Z,8.25
2023-02-28T17:17:19.942Z,8.26
2023-02-28T17:19:53.745Z,8.25
2023-02-28T17:22:22.976Z,8.27
2023-02-28T17:24:52.281Z,8.26
2023-02-28T17:27:22.983Z,8.29
2023-02-28T17:29:52.057Z,8.35
2023-02-28T17:32:21.349Z,8.37
2023-02-28T17:34:50.477Z,8.25
2023-02-28T17:37:19.633Z,8.28
2023-02-28T17:39:49.267Z,8.27
2023-02-28T17:42:22.152Z,8.24
2023-02-28T17:44:51.332Z,8.34
2023-02-28T17:47:20.955Z,8.32
2023-02-28T17:49:51.458Z,8.37
2023-02-28T17:52:23.291Z,8.22
2023-02-28T17:54:52.517Z,8.26
2023-02-28T17:57:23.713Z,8.12
2023-02-28T17:59:53.375Z,8.27
2023-02-28T18:02:22.567Z,8.20
2023-02-28T18:04:51.906Z,8.17
2023-02-28T18:07:24.613Z,8.12
2023-02-28T18:09:54.661Z,8.23
2023-02-28T18:12:25.156Z,8.18
2023-02-28T18:14:54.534Z,8.11
2023-02-28T18:17:23.762Z,8.12
2023-02-28T18:19:52.825Z,8.06
2023-02-28T18:22:22.898Z,8.03
2023-02-28T18:24:51.953Z,8.11
2023-02-28T18:27:25.486Z,8.08
2023-02-28T18:29:56.421Z,8.02
2023-02-28T18:32:27.944Z,8.05
2023-02-28T18:34:57.685Z,8.08
2023-02-28T18:37:27.549Z,8.14
2023-02-28T18:39:57.200Z,8.09
2023-02-28T18:42:26.145Z,8.08
2023-02-28T18:44:56.677Z,8.06
2023-02-28T18:47:26.757Z,7.99
2023-02-28T18:49:55.977Z,7.91
2023-02-28T18:52:25.090Z,7.98
2023-02-28T18:54:54.125Z,8.06
2023-02-28T18:57:23.901Z,7.94
2023-02-28T18:59:53.154Z,8.02
2023-02-28T19:02:23.681Z,7.95
2023-02-28T19:04:53.451Z,7.96
2023-02-28T19:07:22.568Z,7.97
2023-02-28T19:09:52.910Z,8.03
2023-02-28T19:12:22.334Z,8.01
2023-02-28T19:14:51.996Z,8.06
2023-02-28T19:17:22.555Z,8.11
2023-02-28T19:19:52.345Z,8.02
2023-02-28T19:22:21.415Z,8.03
2023-02-28T19:24:51.778Z,8.10
2023-02-28T19:27:21.653Z,7.92
2023-02-28T19:29:53.385Z,8.07
2023-02-28T19:32:24.112Z,8.13
2023-02-28T19:34:54.189Z,8.22
2023-02-28T19:37:24.016Z,8.09
2023-02-28T19:39:57.189Z,8.10
2023-02-28T19:42:28.812Z,8.19
2023-02-28T19:44:57.809Z,8.09
2023-02-28T19:47:28.263Z,8.02
2023-02-28T19:49:57.401Z,8.03
2023-02-28T19:52:27.234Z,7.97
2023-02-28T19:54:56.303Z,7.88
2023-02-28T19:57:25.623Z,7.86
2023-02-28T19:59:54.721Z,7.87
2023-02-28T20:02:24.591Z,7.78
2023-02-28T20:04:59.940Z,7.76
2023-02-28T20:07:33.098Z,7.80
2023-02-28T20:10:02.246Z,7.79
2023-02-28T20:12:32.922Z,7.76
2023-02-28T20:15:03.924Z,7.68
2023-02-28T20:17:34.417Z,7.74
2023-02-28T20:20:05.527Z,7.84
2023-02-28T20:22:36.671Z,7.78
2023-02-28T20:25:08.330Z,7.86
2023-02-28T20:27:37.472Z,7.89
2023-02-28T20:30:08.913Z,7.94
2023-02-28T20:32:39.910Z,7.94
2023-02-28T20:35:12.527Z,8.03
2023-02-28T20:37:41.670Z,7.95
2023-02-28T20:40:12.032Z,7.94
2023-02-28T20:42:41.372Z,7.93
2023-02-28T20:45:11.801Z,8.00
2023-02-28T20:47:42.554Z,7.96
2023-02-28T20:50:18.049Z,7.97
2023-02-28T20:52:47.355Z,7.93
2023-02-28T20:55:16.508Z,8.02
2023-02-28T20:57:45.756Z,7.97
2023-02-28T21:00:20.217Z,7.85
2023-02-28T21:02:49.362Z,7.84
2023-02-28T21:05:19.888Z,7.91
2023-02-28T21:07:49.436Z,7.82
2023-02-28T21:10:19.694Z,7.63
2023-02-28T21:12:54.772Z,7.79
2023-02-28T21:15:24.041Z,7.65
2023-02-28T21:17:53.132Z,7.73
2023-02-28T21:20:23.625Z,7.73
2023-02-28T21:22:53.798Z,7.72
2023-02-28T21:25:23.425Z,7.80
2023-02-28T21:27:55.818Z,7.76
2023-02-28T21:30:25.156Z,7.70
2023-02-28T21:32:54.229Z,7.65
2023-02-28T21:35:25.305Z,7.62
2023-02-28T21:37:54.253Z,7.61
2023-02-28T21:40:23.421Z,7.61
2023-02-28T21:42:52.528Z,7.51
2023-02-28T21:45:22.219Z,7.52
2023-02-28T21:47:51.187Z,7.50
2023-02-28T21:50:20.288Z,7.41
2023-02-28T21:52:51.068Z,7.46
2023-02-28T21:55:20.145Z,7.47
2023-02-28T21:57:49.448Z,7.44
2023-02-28T22:00:19.302Z,7.45
2023-02-28T22:02:48.458Z,7.55
2023-02-28T22:05:17.551Z,7.54
2023-02-28T22:07:46.743Z,7.43
2023-02-28T22:10:18.313Z,7.53
2023-02-28T22:12:47.504Z,7.38
2023-02-28T22:15:18.206Z,7.43
2023-02-28T22:17:47.707Z,7.46
2023-02-28T22:20:17.751Z,7.45
2023-02-28T22:22:46.831Z,7.38
2023-02-28T22:25:18.523Z,7.39
2023-02-28T22:27:47.709Z,7.48
2023-02-28T22:30:17.461Z,7.44
2023-02-28T22:32:46.506Z,7.44
2023-02-28T22:35:15.620Z,7.50
2023-02-28T22:37:44.907Z,7.49
2023-02-28T22:40:14.896Z,7.56
2023-02-28T22:42:45.464Z,7.46
2023-02-28T22:45:14.493Z,7.49
2023-02-28T22:47:43.551Z,7.57
2023-02-28T22:50:13.785Z,7.56
2023-02-28T22:52:43.279Z,7.56
2023-02-28T22:55:12.653Z,7.57
2023-02-28T22:57:42.622Z,7.58
2023-02-28T23:00:16.087Z,7.58
2023-02-28T23:02:45.916Z,7.54
2023-02-28T23:05:16.016Z,7.38
2023-02-28T23:07:45.040Z,7.38
2023-02-28T23:10:19.356Z,7.34
2023-02-28T23:12:51.759Z,7.26
2023-02-28T23:15:24.411Z,7.33
2023-02-28T23:17:53.736Z,7.18
2023-02-28T23:20:23.217Z,7.20
2023-02-28T23:22:52.406Z,7.23
2023-02-28T23:25:22.570Z,7.22
2023-02-28T23:27:51.921Z,7.23
2023-02-28T23:30:22.697Z,7.26
2023-02-28T23:32:52.340Z,7.25
2023-02-28T23:35:21.347Z,7.18
2023-02-28T23:37:50.622Z,7.13
2023-02-28T23:40:19.754Z,7.03
2023-02-28T23:42:49.382Z,7.05
2023-02-28T23:45:18.760Z,7.11
2023-02-28T23:48:08.094Z,6.97
2023-02-28T23:50:39.961Z,6.91
2023-02-28T23:53:11.149Z,7.00
2023-02-28T23:55:40.305Z,6.91
2023-02-28T23:58:09.724Z,6.89
